Terminal Aerodrome Forecast
Issued by NWS Dallas/Fort Worth, TX

Home | Current Version | Previous Version | Text Only | Print | Product List | Glossary On
Versions: 1 2 3 4 5 6 7 8 9 10 11 12 13 14 15 16 17 18 19 20 21 22 23 24 25 26 27 28 29 30 31 32 33 34 35 36 37 38 39
000
FTUS44 KFWD 192000 AAA
TAFACT
TAF AMD
KACT 192056Z 1921/2018 13006KT P6SM VCSH SCT035 BKN050
     FM200100 13006KT P6SM SCT050
     FM200700 13006KT 4SM BR OVC020
     FM200900 13003KT 1SM BR OVC006
     FM201500 13007KT 6SM BR OVC013
     FM201600 13007KT P6SM OVC022=

USA.gov is the U.S. government's official web portal to all federal, state and local government web resources and services.